Hinkle, KY (40953)

2:35 PM EDT on August 28, 2015 (GMT -0400)
liford's | | Change Station
CLOSE
Current Station
Personal Weather Station
Location: Barbourville, KY
Elevation: 1066 ft
Nearby Weather Stations

Elev 1066 ft 36.84 °N, 83.85 °W | Updated 4 minutes ago

Clear
Clear
84.9 °F
Feels Like 86 °F
N
1.7
Wind Variable Wind from WNW

Today
High -- | Low -- °F
--% Chance of Precip.
Yesterday
High -- | Low -- °F
Precip. -- in
7:02 AM 8:09 PM
Waxing Gibbous, 98% visible
Pressure 30.17 in
Visibility 10.0 miles
Clouds Scattered Clouds 8000 ft
Heat Index 86 °F
Dew Point 62 °F
Humidity 47%
Rainfall 0.00 in
Snow Depth Not available.
UV 8 out of 12
Pollen 8.60 out of 12
Air Quality Not available.
Flu Activity Not available.
METAR K1A6 281815Z AUTO 16003KT 10SM SCT080 28/17 A3017 RMK AO2 T02750171
Pressure 30.17 in
Visibility 10.0 miles
Clouds Scattered Clouds 8000 ft
Heat Index 86 °F
Dew Point 62 °F
Humidity 47%
Rainfall 0.00 in
Snow Depth Not available.
UV 8 out of 12
Pollen 8.60 out of 12
Air Quality Not available.
Flu Activity Not available.
METAR K1A6 281815Z AUTO 16003KT 10SM SCT080 28/17 A3017 RMK AO2 T02750171

10-Day Weather Forecast

×

Almanac

Astronomy

Aug. 28, 2015 Rise Set
Actual Time
Civil Twilight
Nautical Twilight
Astronomical Twilight
Moon
Length of Visible Light
Length of Day
Tomorrow will be .
, % of the Moon is Illuminated

Today's Extremes

State Highs State Lows

Community

WunderPhotos

Upload Photos

1,850,453 photos uploaded!

WunderBlogs® & News

Nearby

Air Quality

  Air Quality AQ Index Pollutant
Not available.

Snow Depth

Station Depth Elevation

Earthquake Activity

City Distance Mag. Time & Date
Minimum magnitude displayed is 2.5.

Coastal Water Temperatures

Place Temperature

Stations

Nearby Weather Stations

Station Location Temp. Windchill Dew Point Humidity Wind Precip. Elev Updated Type